Esserville, Virginia
Current Conditions -  °F | °C
As of 1:55 AM on Thursday 23 Oct 2014 (Local Time) from KLNP Reporting Station
Overcast Overcast  
Wind Chill: 39°   Ceiling: 800
Heat Index: 43°   Visibility: 10mi
Dew Point: 43°   Wind: 7mph
Humidity: 100%   Direction: 360°N
Pressure: 30.18"   Gusts: NA
Location:  36.9212°N, 82.5945°W
Report Text: KLNP 230555Z AUTO 36006KT 10SM BKN008 OVC014 06/06 A3018 RMK AO2
Loading
Personal Weather Stations






























Interactive Weather Map
Tropical Storm Tracking
New forecast layout! Learn more

10-Day Weather Forecast

Advertisements
Track Severe Weather on mobile